Data for 06/03/2017

Time Sea-Level Adjusted Pressure Absolute Pressure Temperature Relative Humidity Dew Point   
(mb) (inHg) (mb) (inHg) (C) (F) (%) (C) (F)
00:05 1022 30.18 851 25.13 12.5 54.4 48 1.8 35.2
00:10 1022 30.18 851 25.13 12.5 54.5 48 1.8 35.3
00:15 1022 30.18 851 25.13 12.1 53.8 51 2.3 36.2
00:20 1022 30.18 851 25.13 11.7 53 53 2.4 36.2
00:25 1022 30.18 851 25.13 11.6 52.8 52 2 35.6
00:30 1022 30.18 851 25.13 11.5 52.8 53 2.3 36.1
00:35 1022 30.18 851 25.13 11.2 52.2 55 2.6 36.7
00:40 1022 30.18 851 25.13 10.8 51.5 56 2.4 36.4
00:45 1022 30.18 851 25.13 10.8 51.4 56 2.4 36.3
00:50 1022 30.18 851 25.13 10.8 51.4 54 2 35.6
00:55 1022 30.18 851 25.13 11.2 52.1 54 2.2 36
01:00 1022 30.18 851 25.13 11.2 52.2 54 2.3 36.1
01:05 1022 30.18 851 25.13 11.1 51.9 55 2.3 36.2
01:10 1022 30.18 851 25.13 10.8 51.4 56 2.3 36.1
01:15 1022 30.18 851 25.13 10.4 50.8 57 2.3 36.1
01:20 1022 30.18 851 25.13 10.3 50.6 56 2 35.7
01:25 1022 30.18 851 25.13 10.4 50.8 56 2 35.6
01:30 1022 30.18 851 25.13 10.8 51.4 54 1.8 35.3
01:35 1022 30.18 851 25.13 10.7 51.3 55 2 35.7
01:40 1022 30.18 851 25.13 10.5 50.8 56 2.1 35.9
01:45 1022 30.18 851 25.13 10.3 50.5 56 1.9 35.3
01:50 1022 30.18 852 25.16 10.3 50.5 54 1.5 34.6
01:55 1022 30.18 852 25.16 10.6 51.1 54 1.6 35
02:00 1022 30.18 852 25.16 10.8 51.4 53 1.7 35.1
02:05 1022 30.18 852 25.16 10.7 51.3 54 1.8 35.2
02:10 1022 30.18 851 25.13 10.3 50.6 56 2 35.6
02:15 1022 30.18 851 25.13 10.3 50.6 56 2 35.6
02:20 1022 30.18 851 25.13 10.2 50.4 57 2.1 35.7
02:25 1022 30.18 851 25.13 10.4 50.6 55 1.8 35.2
02:30 1022 30.18 851 25.13 10.6 51.1 54 1.7 35
02:35 1022 30.18 851 25.13 11 51.8 54 2 35.5
02:40 1022 30.18 852 25.16 10.7 51.2 55 2 35.7
02:45 1022 30.18 852 25.16 10.4 50.8 56 2 35.6
02:50 1022 30.18 852 25.16 10.1 50.2 56 1.9 35.4
02:55 1022 30.18 852 25.16 10.2 50.3 56 1.9 35.4
03:00 1022 30.18 852 25.16 10.1 50.2 57 2 35.5
03:05 1022 30.18 852 25.16 9.9 49.8 58 1.9 35.5
03:10 1022 30.18 852 25.16 9.6 49.3 59 2 35.5
03:15 1022 30.18 852 25.16 9.7 49.4 58 1.8 35.3
03:20 1022 30.18 852 25.16 9.7 49.5 58 1.8 35.3
03:25 1022 30.18 852 25.16 9.9 49.8 57 1.7 35.1
03:30 1023 30.21 852 25.16 9.6 49.3 59 2.2 35.9
03:35 1023 30.21 852 25.16 9.1 48.4 61 1.9 35.5
03:40 1023 30.21 852 25.16 9.1 48.3 60 1.8 35.3
03:45 1023 30.21 852 25.16 9.3 48.7 60 1.8 35.3
03:50 1023 30.21 852 25.16 9.5 49.2 58 1.7 35.1
03:55 1023 30.21 852 25.16 9.6 49.3 59 2 35.5
04:00 1023 30.21 852 25.16 9.3 48.7 61 2.1 35.8
04:05 1023 30.21 852 25.16 9 48.3 61 1.9 35.5
04:10 1023 30.21 852 25.16 9.2 48.6 60 1.8 35.3
04:15 1023 30.21 852 25.16 9.4 49 58 1.7 35.1
04:20 1023 30.21 852 25.16 9.6 49.3 58 1.7 35
04:25 1023 30.21 852 25.16 9.6 49.3 59 2 35.6
04:30 1023 30.21 852 25.16 9.3 48.8 60 1.9 35.5
04:35 1023 30.21 852 25.16 9.2 48.6 60 1.9 35.4
04:40 1023 30.21 852 25.16 9.1 48.4 61 2 35.6
04:45 1023 30.21 852 25.16 9.4 48.9 58 1.6 34.9
04:50 1023 30.21 852 25.16 9.2 48.6 60 2 35.5
04:55 1023 30.21 852 25.16 9.2 48.5 59 1.7 35
05:00 1023 30.21 852 25.16 9.4 48.9 59 1.8 35.2
05:05 1023 30.21 852 25.16 9.3 48.7 60 2.1 35.7
05:10 1023 30.21 852 25.16 9 48.1 61 1.9 35.4
05:15 1023 30.21 852 25.16 9.1 48.4 60 1.8 35.3
05:20 1023 30.21 852 25.16 9.4 49 59 1.8 35.2
05:25 1023 30.21 852 25.16 9.4 48.9 60 2.1 35.7
05:30 1023 30.21 852 25.16 9.3 48.8 59 1.7 35.1
05:35 1023 30.21 852 25.16 9.4 49 60 2.1 35.7
05:40 1023 30.21 852 25.16 9.4 48.9 60 2.1 35.7
05:45 1023 30.21 852 25.16 9.5 49.1 60 2.2 35.9
05:50 1023 30.21 852 25.16 9.8 49.7 58 2 35.6
05:55 1023 30.21 852 25.16 10.2 50.3 57 2.1 35.8
06:00 1023 30.21 852 25.16 10.3 50.5 57 2.1 35.8
06:05 1023 30.21 852 25.16 10.5 51 57 2.4 36.3
06:10 1023 30.21 852 25.16 10.7 51.2 57 2.6 36.6
06:15 1023 30.21 852 25.16 11 51.9 55 2.3 36.2
06:20 1023 30.21 852 25.16 11.3 52.4 54 2.5 36.4
06:25 1023 30.21 852 25.16 11.7 53.1 53 2.4 36.4
06:30 1023 30.21 852 25.16 12.2 54 50 2.3 36.1
06:35 1023 30.21 852 25.16 12.8 55 49 2.3 36.2
06:40 1023 30.21 852 25.16 13.3 56 48 2.6 36.6
06:45 1023 30.21 852 25.16 13.8 56.8 47 2.7 36.8
06:50 1023 30.21 852 25.16 13.4 56.2 49 3 37.4
06:55 1023 30.21 852 25.16 13.5 56.2 49 3.1 37.5
07:00 1023 30.21 852 25.16 14.1 57.4 47 2.9 37.3
07:05 1023 30.21 852 25.16 14.6 58.4 46 3.1 37.6
07:10 1022 30.18 852 25.16 14.8 58.7 44 2.8 37.1
07:15 1022 30.18 852 25.16 14.9 58.9 44 2.9 37.2
07:20 1022 30.18 852 25.16 15 58.9 41 1.9 35.3
07:25 1022 30.18 852 25.16 15.9 60.5 41 2.6 36.7
07:30 1022 30.18 852 25.16 15.9 60.6 40 2.4 36.3
07:35 1022 30.18 851 25.13 16 60.9 43 3.7 38.6
07:40 1022 30.18 851 25.13 16 60.8 42 3.1 37.6
07:45 1022 30.18 851 25.13 16.6 61.8 40 3.1 37.6
07:50 1022 30.18 851 25.13 16.3 61.3 41 3.3 37.9
07:55 1022 30.18 851 25.13 16.3 61.4 40 2.9 37.2
08:00 1022 30.18 851 25.13 17.2 62.9 39 3.4 38.1
08:05 1022 30.18 851 25.13 17.4 63.2 38 3.1 37.5
08:10 1022 30.18 851 25.13 17.2 62.9 39 3.3 37.9
08:15 1022 30.18 851 25.13 17.8 64 38 3.4 38.1
08:20 1022 30.18 851 25.13 18.3 65 36 3 37.4
08:25 1022 30.18 851 25.13 18.9 66 35 3.2 37.7
08:30 1022 30.18 851 25.13 19.2 66.5 34 3.1 37.6
08:35 1022 30.18 851 25.13 19.5 67.2 35 3.8 38.9
08:40 1022 30.18 851 25.13 19.3 66.7 36 4.1 39.4
08:45 1022 30.18 851 25.13 18.6 65.5 37 3.6 38.5
08:50 1022 30.18 851 25.13 18.5 65.3 38 4 39.2
08:55 1022 30.18 851 25.13 18.6 65.4 37 3.9 39
09:00 1022 30.18 851 25.13 19.2 66.6 35 3.5 38.3
09:05 1021 30.15 851 25.13 19.6 67.3 35 3.7 38.6
09:10 1021 30.15 851 25.13 19.7 67.5 36 4.5 40.1
09:15 1021 30.15 851 25.13 19.6 67.3 35 4 39.1
09:20 1021 30.15 851 25.13 19.9 67.9 36 4.4 40
09:25 1021 30.15 851 25.13 19.5 67 37 4.7 40.5
09:30 1021 30.15 850 25.1 19.6 67.2 35 4 39.2
09:35 1021 30.15 850 25.1 20.3 68.5 34 4.3 39.7
09:40 1021 30.15 850 25.1 20.5 68.8 35 4.8 40.7
09:45 1021 30.15 850 25.1 20.6 69 33 4.1 39.3
09:50 1021 30.15 850 25.1 21.5 70.6 32 4.3 39.7
09:55 1021 30.15 850 25.1 21.5 70.8 34 5.3 41.5
10:00 1021 30.15 850 25.1 21.2 70.2 33 4.4 39.9
10:05 1021 30.15 850 25.1 21.7 71.1 32 4.7 40.4
10:10 1021 30.15 850 25.1 21.9 71.4 33 4.9 40.8
10:15 1021 30.15 850 25.1 22.3 72.1 31 4.5 40.2
10:20 1021 30.15 850 25.1 22.2 72 34 5.7 42.2
10:25 1021 30.15 850 25.1 22.2 72 31 4.6 40.3
10:30 1021 30.15 850 25.1 22.3 72.1 31 4.5 40.1
10:35 1021 30.15 850 25.1 22.9 73.3 30 4.8 40.6
10:40 1020 30.12 850 25.1 23.4 74.1 27 3.8 38.8
10:45 1020 30.12 850 25.1 23.1 73.5 28 3.7 38.6
10:50 1020 30.12 850 25.1 23.3 74 24 1.8 35.3
10:55 1020 30.12 849 25.07 24.2 75.5 24 2.5 36.4
11:00 1020 30.12 849 25.07 23.9 74.9 25 2.8 37.1
11:05 1020 30.12 849 25.07 24.6 76.2 24 3 37.3
11:10 1020 30.12 849 25.07 24.9 76.9 27 4.9 40.7
11:15 1020 30.12 849 25.07 24.7 76.4 25 3.6 38.4
11:20 1020 30.12 849 25.07 24.2 75.5 26 3.9 38.9
11:25 1020 30.12 849 25.07 24.5 76.2 24 3 37.5
11:30 1020 30.12 849 25.07 24.3 75.7 28 4.7 40.5
11:35 1020 30.12 849 25.07 25.1 77.1 25 3.8 38.9
11:40 1020 30.12 849 25.07 25 77 24 3.4 38.1
11:45 1020 30.12 849 25.07 25.6 78.1 24 4.1 39.4
11:50 1020 30.12 849 25.07 25.5 77.8 25 4 39.2
11:55 1020 30.12 849 25.07 25.2 77.4 22 2.4 36.3
12:00 1020 30.12 849 25.07 25 76.9 24 3.4 38.1
12:05 1020 30.12 849 25.07 25 76.9 22 2 35.5
12:10 1020 30.12 849 25.07 24.7 76.5 25 3.4 38.1
12:15 1020 30.12 849 25.07 25 77 24 3.1 37.6
12:20 1020 30.12 849 25.07 25.3 77.5 23 2.9 37.3
12:25 1020 30.12 849 25.07 25 77 23 2.5 36.5
12:30 1020 30.12 849 25.07 24.9 76.8 22 1.9 35.5
12:35 1020 30.12 849 25.07 25.3 77.5 20 1.2 34.1
12:40 1020 30.12 849 25.07 25.4 77.8 21 1.6 34.9
12:45 1020 30.12 849 25.07 25.4 77.8 20 1.3 34.3
12:50 1020 30.12 849 25.07 24.4 75.9 21 0.7 33.2
12:55 1020 30.12 849 25.07 24.5 76.1 19 -0.4 31.3
13:00 1020 30.12 849 25.07 24.7 76.4 19 -0.1 31.8
13:05 1020 30.12 849 25.07 25.3 77.6 19 0.6 33
13:10 1020 30.12 849 25.07 26 78.8 17 -1.1 30.1
13:15 1019 30.09 849 25.07 25.5 77.9 18 -0.3 31.5
13:20 1019 30.09 849 25.07 25.4 77.7 20 1.4 34.5
13:25 1019 30.09 849 25.07 25.5 77.8 19 0.4 32.8
13:30 1019 30.09 849 25.07 25.1 77.1 20 1 33.8
13:35 1019 30.09 849 25.07 25.4 77.8 19 0.5 32.8
13:40 1019 30.09 848 25.04 25.8 78.5 19 0.7 33.2
13:45 1019 30.09 848 25.04 25.8 78.5 20 1.1 34
13:50 1019 30.09 848 25.04 25.5 77.9 20 0.8 33.4
13:55 1019 30.09 848 25.04 25.5 77.9 20 1.4 34.6
14:00 1019 30.09 848 25.04 26.8 80.2 18 0.5 32.8
14:05 1019 30.09 848 25.04 27 80.5 17 0.4 32.8
14:10 1019 30.09 848 25.04 26.2 79.2 19 1 33.8
14:15 1019 30.09 848 25.04 25.7 78.2 19 1 33.7
14:20 1019 30.09 848 25.04 26.3 79.3 19 1.4 34.6
14:25 1019 30.09 848 25.04 25.8 78.4 19 0.8 33.5
14:30 1019 30.09 848 25.04 25.7 78.2 20 0.9 33.7
14:35 1019 30.09 848 25.04 26.2 79.1 18 0.3 32.5
14:40 1019 30.09 848 25.04 25.5 78 20 1.3 34.3
14:45 1019 30.09 848 25.04 25.1 77.2 20 0.8 33.4
14:50 1019 30.09 848 25.04 25.1 77.2 19 0.4 32.8
14:55 1018 30.06 848 25.04 25.4 77.6 19 0.2 32.4
15:00 1018 30.06 848 25.04 26.1 79 19 1.3 34.3
15:05 1018 30.06 848 25.04 26.4 79.5 18 0.5 33
15:10 1018 30.06 848 25.04 26.1 79 19 1.2 34.1
15:15 1018 30.06 848 25.04 26.1 78.9 18 0.4 32.7
15:20 1018 30.06 848 25.04 25.9 78.6 19 0.6 33.1
15:25 1018 30.06 848 25.04 26.4 79.5 17 0.1 32.1
15:30 1018 30.06 848 25.04 27.1 80.8 17 0.7 33.2
15:35 1018 30.06 848 25.04 27.1 80.7 18 1.3 34.4
15:40 1018 30.06 847 25.01 26.9 80.5 19 1.5 34.7
15:45 1018 30.06 847 25.01 27.6 81.6 18 1.2 34.2
15:50 1018 30.06 847 25.01 28.1 82.6 17 1.2 34.2
15:55 1018 30.06 847 25.01 27.4 81.4 19 2.4 36.2
16:00 1018 30.06 847 25.01 27.5 81.6 18 1.5 34.8
16:05 1018 30.06 847 25.01 27.8 82.1 18 1.3 34.3
16:10 1018 30.06 847 25.01 27.1 80.8 18 1.1 34
16:15 1018 30.06 847 25.01 27.3 81.2 18 1.4 34.5
16:20 1018 30.06 847 25.01 26.9 80.3 19 1.3 34.3
16:25 1018 30.06 847 25.01 26.9 80.3 20 2 35.6
16:30 1018 30.06 847 25.01 26.7 80.1 19 1.2 34.1
16:35 1018 30.06 847 25.01 27 80.7 18 0.9 33.5
16:40 1018 30.06 847 25.01 27.9 82.3 18 1.8 35.2
16:45 1018 30.06 847 25.01 28 82.4 18 1.9 35.5
16:50 1018 30.06 847 25.01 27.9 82.1 18 1.9 35.3
16:55 1018 30.06 847 25.01 28 82.3 18 2 35.6
17:00 1018 30.06 847 25.01 27.5 81.5 19 2.3 36.1
17:05 1018 30.06 847 25.01 27.6 81.7 19 2.2 36
17:10 1018 30.06 847 25.01 27.1 80.7 20 2.6 36.8
17:15 1018 30.06 847 25.01 26.8 80.2 20 2.1 35.8
17:20 1018 30.06 847 25.01 27.3 81.1 20 2.8 37
17:25 1018 30.06 847 25.01 27.2 80.9 20 2.3 36.2
17:30 1018 30.06 847 25.01 26.7 80.1 21 3.1 37.6
17:35 1018 30.06 847 25.01 26.4 79.5 20 2 35.6
17:40 1018 30.06 847 25.01 26 78.8 21 2.1 35.9
17:45 1018 30.06 847 25.01 25.2 77.3 22 1.9 35.5
17:50 1018 30.06 847 25.01 25.2 77.4 21 1.6 34.9
17:55 1018 30.06 847 25.01 25.4 77.7 21 1.8 35.2
18:00 1018 30.06 847 25.01 25.2 77.4 21 1.8 35.3
18:05 1018 30.06 847 25.01 25.3 77.5 21 1.4 34.5
18:10 1018 30.06 847 25.01 25.6 78.1 21 2 35.6
18:15 1018 30.06 847 25.01 26 78.8 21 2.3 36.1
18:20 1018 30.06 847 25.01 25.9 78.5 21 2 35.6
18:25 1018 30.06 847 25.01 25.5 77.9 24 3.8 38.9
18:30 1018 30.06 847 25.01 24.7 76.5 28 5.5 41.9
18:35 1018 30.06 847 25.01 24 75.1 29 5.2 41.4
18:40 1018 30.06 847 25.01 23.5 74.2 31 5.7 42.2
18:45 1018 30.06 847 25.01 23.2 73.8 32 6 42.7
18:50 1018 30.06 847 25.01 23 73.4 33 6 42.8
18:55 1018 30.06 847 25.01 22.7 72.9 33 5.9 42.6
19:00 1018 30.06 847 25.01 22.6 72.7 34 6 42.9
19:05 1018 30.06 847 25.01 22.5 72.5 34 6.2 43.2
19:10 1018 30.06 847 25.01 22.4 72.3 34 6.2 43.1
19:15 1018 30.06 847 25.01 22.3 72.1 35 6.1 42.9
19:20 1018 30.06 847 25.01 22.2 71.9 35 6.2 43.2
19:25 1018 30.06 847 25.01 22 71.7 36 6.3 43.3
19:30 1018 30.06 847 25.01 21.9 71.5 35 6.1 43.1
19:35 1018 30.06 847 25.01 21.9 71.4 35 6 42.8
19:40 1018 30.06 847 25.01 21.9 71.3 35 5.8 42.5
19:45 1018 30.06 847 25.01 21.8 71.3 35 5.9 42.6
19:50 1018 30.06 847 25.01 21.7 71.1 35 6 42.7
19:55 1018 30.06 847 25.01 21.7 71 36 6 42.7
20:00 1018 30.06 847 25.01 21.6 71 35 5.8 42.4
20:05 1018 30.06 847 25.01 21.7 71 35 5.8 42.4
20:10 1018 30.06 847 25.01 21.7 71 35 5.9 42.6
20:15 1018 30.06 847 25.01 21.6 70.8 35 5.8 42.5
20:20 1018 30.06 847 25.01 21.4 70.6 36 5.9 42.7
20:25 1018 30.06 847 25.01 21.4 70.5 36 5.9 42.6
20:30 1018 30.06 847 25.01 21.2 70.2 37 6 42.7
20:35 1018 30.06 847 25.01 21.1 70 37 6 42.9
20:40 1018 30.06 847 25.01 21 69.8 38 6.2 43.1
20:45 1018 30.06 847 25.01 20.8 69.5 38 6.1 43
20:50 1018 30.06 847 25.01 20.8 69.4 38 6.1 43
20:55 1018 30.06 847 25.01 20.7 69.3 38 6 42.9
21:00 1018 30.06 848 25.04 20.6 69.1 39 6.2 43.2
21:05 1018 30.06 848 25.04 19.9 67.7 45 7.6 45.8
21:10 1018 30.06 848 25.04 19.1 66.3 45 6.9 44.4
21:15 1018 30.06 848 25.04 19 66.3 46 7.2 44.9
21:20 1019 30.09 848 25.04 18.7 65.6 46 7.1 44.8
21:25 1018 30.06 848 25.04 18.5 65.3 47 7.2 44.9
21:30 1018 30.06 848 25.04 18.6 65.4 45 6.7 44
21:35 1018 30.06 848 25.04 18.7 65.7 45 6.7 44
21:40 1018 30.06 848 25.04 18.4 65.2 47 7.1 44.8
21:45 1018 30.06 848 25.04 18.2 64.7 48 7 44.5
21:50 1018 30.06 848 25.04 18.1 64.5 49 7.2 45
21:55 1018 30.06 848 25.04 17.8 64 49 7 44.7
22:00 1018 30.06 848 25.04 17.5 63.5 49 6.9 44.3
22:05 1018 30.06 848 25.04 17.7 63.8 48 6.7 44.1
22:10 1018 30.06 847 25.01 17.6 63.7 48 6.6 43.9
22:15 1018 30.06 847 25.01 17.7 63.8 48 6.5 43.8
22:20 1018 30.06 847 25.01 17.3 63.2 49 6.6 43.8
22:25 1018 30.06 847 25.01 17.1 62.8 49 6.5 43.7
22:30 1018 30.06 847 25.01 17.1 62.7 50 6.6 43.8
22:35 1018 30.06 847 25.01 17 62.6 50 6.5 43.7
22:40 1018 30.06 847 25.01 17 62.6 50 6.5 43.8
22:45 1018 30.06 847 25.01 17.1 62.7 50 6.6 43.8
22:50 1018 30.06 847 25.01 16.9 62.3 50 6.6 43.8
22:55 1018 30.06 847 25.01 17.1 62.7 49 6.4 43.5
23:00 1018 30.06 847 25.01 16.9 62.5 49 6.3 43.3
23:05 1018 30.06 847 25.01 16.9 62.5 48 6.1 42.9
23:10 1018 30.06 847 25.01 17 62.6 48 6.1 43
23:15 1018 30.06 847 25.01 17 62.6 49 6.3 43.4
23:20 1018 30.06 847 25.01 16.9 62.4 49 6.2 43.1
23:25 1018 30.06 847 25.01 16.9 62.3 50 6.3 43.4
23:30 1018 30.06 847 25.01 16.6 61.9 50 6.2 43.2
23:35 1018 30.06 847 25.01 16.4 61.6 48 5.6 42.1
23:40 1018 30.06 847 25.01 16.4 61.6 48 5.5 41.9
23:45 1018 30.06 847 25.01 16.5 61.7 48 5.7 42.2
23:50 1018 30.06 847 25.01 16.6 61.9 47 5.4 41.7
23:55 1018 30.06 847 25.01 16.8 62.2 46 5.3 41.6
24:00 1018 30.06 847 25.01 16.8 62.2 47 5.5 41.9